createdAt,value
2018-07-30T00:00:55.925Z,18.90
2018-07-30T00:03:24.414Z,18.83
2018-07-30T00:05:52.768Z,18.90
2018-07-30T00:08:21.082Z,19.10
2018-07-30T00:10:49.401Z,19.12
2018-07-30T00:13:17.823Z,19.14
2018-07-30T00:15:46.149Z,18.85
2018-07-30T00:18:14.603Z,18.74
2018-07-30T00:20:42.962Z,18.62
2018-07-30T00:23:11.294Z,18.78
2018-07-30T00:25:39.594Z,18.96
2018-07-30T00:28:07.936Z,18.90
2018-07-30T00:30:36.313Z,18.88
2018-07-30T00:33:04.715Z,18.74
2018-07-30T00:35:32.994Z,18.51
2018-07-30T00:38:01.315Z,18.45
2018-07-30T00:40:29.652Z,18.39
2018-07-30T00:42:57.966Z,18.32
2018-07-30T00:45:26.558Z,18.28
2018-07-30T00:47:54.855Z,18.23
2018-07-30T00:50:23.230Z,18.21
2018-07-30T00:52:51.539Z,18.30
2018-07-30T00:55:19.934Z,18.16
2018-07-30T00:57:48.233Z,18.03
2018-07-30T01:00:16.675Z,18.03
2018-07-30T01:02:44.999Z,17.95
2018-07-30T01:05:13.298Z,17.74
2018-07-30T01:07:41.699Z,17.64
2018-07-30T01:10:10.077Z,17.81
2018-07-30T01:12:38.471Z,18.02
2018-07-30T01:15:06.854Z,18.14
2018-07-30T01:17:35.186Z,18.21
2018-07-30T01:20:03.546Z,18.07
2018-07-30T01:22:31.838Z,17.78
2018-07-30T01:25:00.153Z,17.69
2018-07-30T01:27:28.459Z,17.62
2018-07-30T01:29:56.782Z,17.82
2018-07-30T01:32:25.230Z,17.80
2018-07-30T01:34:53.543Z,17.86
2018-07-30T01:37:21.866Z,17.78
2018-07-30T01:39:51.102Z,17.55
2018-07-30T01:42:19.484Z,17.55
2018-07-30T01:44:47.769Z,17.55
2018-07-30T01:47:16.108Z,17.61
2018-07-30T01:49:44.467Z,17.65
2018-07-30T01:52:12.766Z,17.67
2018-07-30T01:54:41.194Z,17.68
2018-07-30T01:57:09.522Z,17.43
2018-07-30T01:59:37.876Z,17.48
2018-07-30T02:02:06.255Z,17.28
2018-07-30T02:04:34.773Z,17.19
2018-07-30T02:07:03.235Z,17.10
2018-07-30T02:09:31.603Z,17.14
2018-07-30T02:12:00.031Z,17.44
2018-07-30T02:14:28.319Z,17.50
2018-07-30T02:16:56.686Z,17.49
2018-07-30T02:19:25.082Z,17.52
2018-07-30T02:21:53.458Z,17.36
2018-07-30T02:24:21.758Z,17.22
2018-07-30T02:26:50.080Z,17.11
2018-07-30T02:29:18.386Z,16.97
2018-07-30T02:31:46.817Z,16.89
2018-07-30T02:34:15.173Z,16.88
2018-07-30T02:36:43.525Z,17.05
2018-07-30T02:39:13.630Z,17.17
2018-07-30T02:41:42.346Z,17.31
2018-07-30T02:44:10.759Z,17.13
2018-07-30T02:46:39.328Z,17.17
2018-07-30T02:49:08.468Z,16.92
2018-07-30T02:51:36.829Z,17.06
2018-07-30T02:54:05.274Z,17.03
2018-07-30T02:56:33.679Z,17.16
2018-07-30T02:59:01.962Z,17.14
2018-07-30T03:01:30.333Z,17.36
2018-07-30T03:03:58.679Z,17.19
2018-07-30T03:06:26.977Z,16.97
2018-07-30T03:08:55.289Z,16.80
2018-07-30T03:11:23.683Z,16.67
2018-07-30T03:13:52.024Z,16.69
2018-07-30T03:16:20.402Z,16.92
2018-07-30T03:18:48.691Z,16.85
2018-07-30T03:21:17.043Z,16.79
2018-07-30T03:23:45.369Z,16.79
2018-07-30T03:26:13.708Z,16.77
2018-07-30T03:28:42.302Z,16.83
2018-07-30T03:31:10.566Z,16.71
2018-07-30T03:33:38.875Z,16.83
2018-07-30T03:36:07.286Z,16.86
2018-07-30T03:38:35.723Z,16.82
2018-07-30T03:41:04.189Z,16.69
2018-07-30T03:43:32.492Z,16.77
2018-07-30T03:46:02.085Z,16.97
2018-07-30T03:48:31.197Z,17.04
2018-07-30T03:50:59.610Z,17.20
2018-07-30T03:53:28.993Z,17.03
2018-07-30T03:55:57.310Z,17.13
2018-07-30T03:58:25.732Z,17.07
2018-07-30T04:00:54.035Z,16.76
2018-07-30T04:03:23.328Z,16.73
2018-07-30T04:05:57.172Z,16.86
2018-07-30T04:08:30.099Z,17.20
2018-07-30T04:10:58.600Z,17.41
2018-07-30T04:13:28.405Z,17.53
2018-07-30T04:15:57.781Z,17.46
2018-07-30T04:18:27.657Z,17.34
2018-07-30T04:20:56.027Z,17.16
2018-07-30T04:23:24.957Z,17.12
2018-07-30T04:25:53.885Z,17.13
2018-07-30T04:28:28.393Z,17.37
2018-07-30T04:31:11.301Z,17.59
2018-07-30T04:33:50.901Z,17.65
2018-07-30T04:39:02.986Z,17.87
2018-07-30T04:41:33.857Z,17.97
2018-07-30T04:44:05.893Z,18.18
2018-07-30T04:46:36.473Z,18.15
2018-07-30T04:49:05.025Z,18.29
2018-07-30T04:51:34.636Z,18.38
2018-07-30T04:54:08.833Z,18.25
2018-07-30T04:56:37.203Z,18.25
2018-07-30T04:59:05.676Z,18.14
2018-07-30T05:01:34.639Z,18.22
2018-07-30T05:04:03.889Z,18.26
2018-07-30T05:06:32.842Z,18.29
2018-07-30T05:09:03.523Z,18.36
2018-07-30T05:11:33.669Z,18.43
2018-07-30T05:14:01.945Z,18.56
2018-07-30T05:16:30.272Z,18.80
2018-07-30T05:19:00.357Z,18.92
2018-07-30T05:21:30.171Z,19.03
2018-07-30T05:23:59.551Z,19.22
2018-07-30T05:26:28.464Z,19.46
2018-07-30T05:28:58.747Z,19.51
2018-07-30T05:31:28.085Z,19.66
2018-07-30T05:33:57.988Z,19.70
2018-07-30T05:36:26.312Z,19.76
2018-07-30T05:38:55.224Z,19.78
2018-07-30T05:41:23.591Z,19.86
2018-07-30T05:43:52.468Z,19.97
2018-07-30T05:46:20.964Z,20.07
2018-07-30T05:48:50.585Z,20.28
2018-07-30T05:51:20.098Z,20.40
2018-07-30T05:53:48.478Z,20.33
2018-07-30T05:56:17.441Z,20.39
2018-07-30T05:58:45.756Z,20.44
2018-07-30T06:01:14.916Z,20.57
2018-07-30T06:03:43.258Z,20.73
2018-07-30T06:06:11.713Z,20.87
2018-07-30T06:08:40.013Z,20.99
2018-07-30T06:11:08.437Z,21.17
2018-07-30T06:13:38.364Z,21.32
2018-07-30T06:16:07.733Z,21.51
2018-07-30T06:18:36.892Z,21.61
2018-07-30T06:21:05.700Z,21.73
2018-07-30T06:23:34.253Z,21.97
2018-07-30T06:26:04.083Z,22.05
2018-07-30T06:28:32.376Z,22.14
2018-07-30T06:31:01.509Z,22.15
2018-07-30T06:33:30.371Z,22.20
2018-07-30T06:36:02.853Z,22.40
2018-07-30T06:38:31.463Z,22.61
2018-07-30T06:40:59.775Z,22.78
2018-07-30T06:43:30.600Z,23.06
2018-07-30T06:49:07.438Z,23.42
2018-07-30T06:51:42.533Z,23.66
2018-07-30T06:54:11.706Z,23.64
2018-07-30T06:56:41.584Z,23.80
2018-07-30T06:59:10.438Z,23.84
2018-07-30T07:01:42.320Z,24.00
2018-07-30T07:04:12.248Z,24.11
2018-07-30T07:06:40.650Z,24.16
2018-07-30T07:09:10.369Z,24.14
2018-07-30T07:11:39.242Z,24.22
2018-07-30T07:14:09.153Z,24.35
2018-07-30T07:16:37.761Z,24.43
2018-07-30T07:19:06.056Z,24.49
2018-07-30T07:21:35.364Z,24.60
2018-07-30T07:24:03.662Z,24.74
2018-07-30T07:26:33.174Z,24.95
2018-07-30T07:29:01.566Z,24.92
2018-07-30T07:31:29.962Z,25.18
2018-07-30T07:33:58.404Z,25.34
2018-07-30T07:36:27.025Z,25.30
2018-07-30T07:38:55.408Z,25.32
2018-07-30T07:41:23.685Z,25.45
2018-07-30T07:43:52.714Z,25.53
2018-07-30T07:46:22.993Z,25.52
2018-07-30T07:48:52.120Z,25.68
2018-07-30T07:51:20.694Z,25.66
2018-07-30T07:53:50.114Z,25.69
2018-07-30T07:56:18.564Z,25.79
2018-07-30T07:58:49.742Z,25.87
2018-07-30T08:01:18.690Z,25.85
2018-07-30T08:03:47.493Z,25.96
2018-07-30T08:06:15.973Z,25.88
2018-07-30T08:08:47.083Z,26.04
2018-07-30T08:11:16.012Z,26.13
2018-07-30T08:13:45.040Z,26.20
2018-07-30T08:16:13.561Z,26.43
2018-07-30T08:18:42.802Z,26.64
2018-07-30T08:21:12.510Z,26.64
2018-07-30T08:23:42.245Z,26.68
2018-07-30T08:26:10.908Z,26.87
2018-07-30T08:28:40.448Z,26.82
2018-07-30T08:31:10.221Z,27.11
2018-07-30T08:33:41.106Z,26.97
2018-07-30T08:36:09.661Z,27.00
2018-07-30T08:38:40.239Z,27.01
2018-07-30T08:41:08.872Z,27.18
2018-07-30T08:43:37.552Z,27.15
2018-07-30T08:46:06.167Z,27.14
2018-07-30T08:48:36.752Z,27.16
2018-07-30T08:51:06.088Z,27.04
2018-07-30T08:53:35.600Z,27.16
2018-07-30T08:56:05.400Z,27.40
2018-07-30T08:58:34.565Z,27.44
2018-07-30T09:01:05.046Z,27.42
2018-07-30T09:03:33.921Z,27.38
2018-07-30T09:06:02.480Z,27.39
2018-07-30T09:08:31.023Z,27.52
2018-07-30T09:10:59.465Z,27.64
2018-07-30T09:13:28.034Z,27.68
2018-07-30T09:15:57.503Z,27.78
2018-07-30T09:18:26.735Z,27.86
2018-07-30T09:20:55.582Z,28.03
2018-07-30T09:23:25.522Z,28.15
2018-07-30T09:25:54.861Z,28.25
2018-07-30T09:28:23.571Z,28.58
2018-07-30T09:30:52.066Z,28.68
2018-07-30T09:33:20.429Z,28.81
2018-07-30T09:35:48.818Z,28.72
2018-07-30T09:38:17.615Z,29.06
2018-07-30T09:40:46.014Z,28.81
2018-07-30T09:43:15.449Z,28.91
2018-07-30T09:45:44.043Z,29.01
2018-07-30T09:48:12.396Z,29.31
2018-07-30T09:50:40.748Z,29.46
2018-07-30T09:53:09.054Z,29.48
2018-07-30T09:55:37.493Z,29.47
2018-07-30T09:58:06.094Z,29.57
2018-07-30T10:00:39.575Z,29.42
2018-07-30T10:03:07.887Z,29.39
2018-07-30T10:05:36.234Z,29.47
2018-07-30T10:08:04.624Z,29.34
2018-07-30T10:10:32.911Z,29.26
2018-07-30T10:13:01.197Z,29.30
2018-07-30T10:15:29.534Z,29.50
2018-07-30T10:17:57.982Z,29.43
2018-07-30T10:20:26.214Z,29.19
2018-07-30T10:22:54.493Z,29.51
2018-07-30T10:25:22.955Z,29.95
2018-07-30T10:27:51.454Z,30.17
2018-07-30T10:30:19.815Z,29.79
2018-07-30T10:32:48.167Z,29.34
2018-07-30T10:35:16.515Z,29.27
2018-07-30T10:37:44.899Z,29.30
2018-07-30T10:40:13.325Z,29.58
2018-07-30T10:42:41.666Z,29.40
2018-07-30T10:45:10.042Z,29.43
2018-07-30T10:47:38.392Z,29.72
2018-07-30T10:50:06.766Z,29.73
2018-07-30T10:52:35.163Z,29.76
2018-07-30T10:55:03.532Z,29.86
2018-07-30T10:57:32.181Z,29.98
2018-07-30T11:00:00.635Z,30.15
2018-07-30T11:02:28.919Z,30.22
2018-07-30T11:04:57.735Z,30.38
2018-07-30T11:07:26.059Z,30.79
2018-07-30T11:09:54.728Z,30.82
2018-07-30T11:12:23.063Z,30.78
2018-07-30T11:14:51.436Z,30.93
2018-07-30T11:17:19.783Z,30.93
2018-07-30T11:19:48.203Z,31.19
2018-07-30T11:22:16.568Z,31.23
2018-07-30T11:24:44.924Z,30.73
2018-07-30T11:27:13.229Z,30.43
2018-07-30T11:29:41.749Z,30.84
2018-07-30T11:32:10.114Z,30.59
2018-07-30T11:34:38.484Z,30.28
2018-07-30T11:37:06.797Z,30.53
2018-07-30T11:39:35.193Z,30.68
2018-07-30T11:42:03.562Z,30.82
2018-07-30T11:44:31.988Z,30.95
2018-07-30T11:47:00.428Z,30.99
2018-07-30T11:49:28.764Z,31.32
2018-07-30T11:51:57.070Z,31.67
2018-07-30T11:54:25.483Z,31.93
2018-07-30T11:56:53.826Z,32.12
2018-07-30T11:59:22.146Z,32.46
2018-07-30T12:01:50.498Z,32.14
2018-07-30T12:04:18.861Z,32.16
2018-07-30T12:06:47.164Z,31.95
2018-07-30T12:09:15.564Z,31.98
2018-07-30T12:11:43.917Z,31.90
2018-07-30T12:14:12.261Z,32.07
2018-07-30T12:16:40.631Z,32.40
2018-07-30T12:19:08.990Z,32.00
2018-07-30T12:21:37.376Z,31.94
2018-07-30T12:24:05.839Z,31.88
2018-07-30T12:26:34.357Z,32.12
2018-07-30T12:29:02.675Z,32.29
2018-07-30T12:31:31.126Z,32.56
2018-07-30T12:33:59.449Z,32.77
2018-07-30T12:36:27.908Z,32.19
2018-07-30T12:38:56.215Z,32.37
2018-07-30T12:41:24.630Z,32.54
2018-07-30T12:43:53.064Z,32.77
2018-07-30T12:46:21.439Z,32.68
2018-07-30T12:48:49.829Z,32.05
2018-07-30T12:51:18.199Z,32.14
2018-07-30T12:53:46.484Z,32.48
2018-07-30T12:56:14.827Z,32.43
2018-07-30T12:58:43.155Z,32.65
2018-07-30T13:01:11.628Z,32.70
2018-07-30T13:03:39.972Z,32.81
2018-07-30T13:06:08.349Z,32.25
2018-07-30T13:08:36.743Z,32.01
2018-07-30T13:11:05.090Z,31.77
2018-07-30T13:13:33.418Z,31.67
2018-07-30T13:16:01.722Z,31.83
2018-07-30T13:18:30.049Z,31.67
2018-07-30T13:20:58.442Z,31.97
2018-07-30T13:23:26.744Z,32.36
2018-07-30T13:25:55.168Z,32.29
2018-07-30T13:28:23.526Z,32.13
2018-07-30T13:30:51.878Z,32.12
2018-07-30T13:33:20.390Z,31.93
2018-07-30T13:35:48.710Z,31.91
2018-07-30T13:38:17.036Z,32.08
2018-07-30T13:40:45.391Z,32.20
2018-07-30T13:43:13.809Z,32.39
2018-07-30T13:45:42.127Z,32.61
2018-07-30T13:48:10.458Z,32.29
2018-07-30T13:50:38.834Z,32.19
2018-07-30T13:53:07.156Z,32.44
2018-07-30T13:55:35.525Z,32.75
2018-07-30T13:58:03.924Z,32.78
2018-07-30T14:00:32.227Z,33.01
2018-07-30T14:03:00.591Z,32.67
2018-07-30T14:05:28.965Z,32.57
2018-07-30T14:07:57.312Z,32.68
2018-07-30T14:10:25.657Z,32.51
2018-07-30T14:12:54.092Z,32.27
2018-07-30T14:15:22.362Z,32.33
2018-07-30T14:17:50.760Z,32.12
2018-07-30T14:20:19.182Z,32.29
2018-07-30T14:22:47.477Z,32.25
2018-07-30T14:25:15.803Z,32.24
2018-07-30T14:27:44.154Z,32.00
2018-07-30T14:30:12.478Z,31.99
2018-07-30T14:32:40.824Z,32.10
2018-07-30T14:35:09.244Z,31.98
2018-07-30T14:37:37.587Z,31.77
2018-07-30T14:40:09.417Z,31.94
2018-07-30T14:42:37.858Z,32.08
2018-07-30T14:45:06.910Z,32.15
2018-07-30T14:47:35.247Z,32.60
2018-07-30T14:50:03.635Z,32.91
2018-07-30T14:52:31.982Z,33.04
2018-07-30T14:55:00.301Z,33.42
2018-07-30T14:57:28.781Z,33.37
2018-07-30T14:59:57.205Z,33.18
2018-07-30T15:02:25.509Z,33.26
2018-07-30T15:04:53.849Z,33.20
2018-07-30T15:07:22.255Z,32.94
2018-07-30T15:09:50.630Z,32.89
2018-07-30T15:12:19.021Z,32.64
2018-07-30T15:14:47.402Z,32.81
2018-07-30T15:17:15.742Z,32.77
2018-07-30T15:19:44.154Z,33.02
2018-07-30T15:22:12.476Z,33.19
2018-07-30T15:24:40.820Z,33.14
2018-07-30T15:27:09.182Z,32.85
2018-07-30T15:29:37.518Z,32.59
2018-07-30T15:32:05.986Z,32.53
2018-07-30T15:34:34.330Z,32.36
2018-07-30T15:37:02.718Z,32.73
2018-07-30T15:39:30.986Z,32.89
2018-07-30T15:41:59.362Z,33.14
2018-07-30T15:44:27.647Z,32.96
2018-07-30T15:46:55.963Z,32.94
2018-07-30T15:49:24.297Z,32.86
2018-07-30T15:51:52.629Z,33.11
2018-07-30T15:54:20.940Z,33.10
2018-07-30T15:56:49.317Z,33.28
2018-07-30T15:59:21.037Z,32.89
2018-07-30T16:01:50.127Z,32.96
2018-07-30T16:04:18.525Z,32.84
2018-07-30T16:06:50.839Z,32.66
2018-07-30T16:09:20.906Z,32.57
2018-07-30T16:11:49.667Z,32.53
2018-07-30T16:14:20.165Z,32.42
2018-07-30T16:16:50.536Z,32.25
2018-07-30T16:19:19.003Z,32.42
2018-07-30T16:21:48.449Z,32.37
2018-07-30T16:24:17.592Z,32.22
2018-07-30T16:26:48.310Z,32.06
2018-07-30T16:29:18.335Z,32.04
2018-07-30T16:31:48.224Z,31.95
2018-07-30T16:34:16.654Z,31.75
2018-07-30T16:36:45.628Z,31.73
2018-07-30T16:39:13.952Z,31.68
2018-07-30T16:41:42.867Z,31.64
2018-07-30T16:44:12.090Z,31.19
2018-07-30T16:46:42.201Z,31.04
2018-07-30T16:49:10.706Z,31.09
2018-07-30T16:51:39.225Z,30.95
2018-07-30T16:54:08.264Z,30.81
2018-07-30T16:56:37.181Z,30.91
2018-07-30T16:59:05.680Z,30.87
2018-07-30T17:01:34.110Z,30.93
2018-07-30T17:04:03.486Z,30.91
2018-07-30T17:06:32.677Z,30.82
2018-07-30T17:09:03.042Z,30.88
2018-07-30T17:11:32.110Z,30.73
2018-07-30T17:14:02.093Z,30.66
2018-07-30T17:16:31.261Z,30.61
2018-07-30T17:19:02.213Z,30.52
2018-07-30T17:21:30.922Z,30.45
2018-07-30T17:24:03.496Z,30.21
2018-07-30T17:26:34.079Z,30.17
2018-07-30T17:29:03.745Z,30.17
2018-07-30T17:31:33.693Z,29.94
2018-07-30T17:34:02.205Z,29.96
2018-07-30T17:36:31.549Z,29.88
2018-07-30T17:38:59.940Z,29.91
2018-07-30T17:41:28.545Z,30.02
2018-07-30T17:43:57.821Z,29.97
2018-07-30T17:46:26.222Z,30.05
2018-07-30T17:49:02.886Z,30.09
2018-07-30T17:51:32.302Z,30.16
2018-07-30T17:54:02.559Z,30.30
2018-07-30T17:56:31.281Z,30.14
2018-07-30T17:59:00.170Z,30.20
2018-07-30T18:01:31.248Z,30.24
2018-07-30T18:04:00.286Z,30.28
2018-07-30T18:06:28.620Z,30.35
2018-07-30T18:08:57.031Z,30.32
2018-07-30T18:11:25.997Z,30.30
2018-07-30T18:13:55.224Z,29.96
2018-07-30T18:16:25.854Z,29.88
2018-07-30T18:18:54.246Z,29.87
2018-07-30T18:21:22.868Z,29.89
2018-07-30T18:23:58.537Z,29.83
2018-07-30T18:29:50.190Z,29.50
2018-07-30T18:32:19.464Z,29.18
2018-07-30T18:34:51.110Z,28.89
2018-07-30T18:37:19.753Z,28.54
2018-07-30T18:39:48.325Z,28.25
2018-07-30T18:42:16.718Z,27.94
2018-07-30T18:44:45.111Z,28.02
2018-07-30T18:47:15.486Z,27.72
2018-07-30T18:49:44.870Z,27.54
2018-07-30T18:52:14.628Z,27.39
2018-07-30T18:54:43.089Z,27.31
2018-07-30T18:57:12.889Z,26.99
2018-07-30T18:59:44.358Z,26.62
2018-07-30T19:02:18.737Z,26.51
2018-07-30T19:05:01.695Z,26.49
2018-07-30T19:12:48.483Z,26.48
2018-07-30T19:15:18.581Z,26.04
2018-07-30T19:20:22.233Z,25.54
2018-07-30T19:23:20.718Z,25.52
2018-07-30T19:25:50.428Z,25.48
2018-07-30T19:28:19.891Z,25.36
2018-07-30T19:30:48.922Z,25.25
2018-07-30T19:33:30.075Z,25.35
2018-07-30T19:36:13.216Z,25.30
2018-07-30T19:38:48.838Z,25.29
2018-07-30T19:41:17.976Z,25.33
2018-07-30T19:43:47.395Z,25.27
2018-07-30T19:46:57.339Z,25.18
2018-07-30T19:49:50.045Z,25.23
2018-07-30T19:52:21.502Z,25.09
2018-07-30T19:56:26.605Z,24.95
2018-07-30T19:59:21.232Z,24.42
2018-07-30T20:01:49.678Z,24.17
2018-07-30T20:04:23.236Z,24.19
2018-07-30T20:12:46.182Z,24.41
2018-07-30T20:15:19.661Z,23.94
2018-07-30T20:17:48.838Z,23.75
2018-07-30T20:20:17.677Z,23.71
2018-07-30T20:22:47.722Z,23.64
2018-07-30T20:25:16.746Z,23.69
2018-07-30T20:27:45.240Z,23.79
2018-07-30T20:30:14.671Z,23.81
2018-07-30T20:32:45.725Z,23.66
2018-07-30T20:35:15.429Z,23.77
2018-07-30T20:40:52.132Z,23.50
2018-07-30T20:43:22.378Z,23.49
2018-07-30T20:45:55.732Z,23.53
2018-07-30T20:48:37.304Z,23.37
2018-07-30T20:51:06.432Z,23.48
2018-07-30T20:53:35.638Z,23.55
2018-07-30T21:01:58.061Z,23.51
2018-07-30T21:04:27.932Z,23.47
2018-07-30T21:06:57.010Z,23.55
2018-07-30T21:09:27.049Z,23.54
2018-07-30T21:11:56.670Z,23.54
2018-07-30T21:14:25.138Z,23.55
2018-07-30T21:16:55.047Z,23.41
2018-07-30T21:19:23.460Z,23.20
2018-07-30T21:21:52.588Z,23.39
2018-07-30T21:24:22.834Z,23.44
2018-07-30T21:26:53.877Z,23.38
2018-07-30T21:29:22.910Z,23.29
2018-07-30T21:31:52.796Z,23.13
2018-07-30T21:34:21.825Z,23.08
2018-07-30T21:36:51.169Z,22.76
2018-07-30T21:39:20.946Z,22.76
2018-07-30T21:41:49.446Z,22.60
2018-07-30T21:44:18.167Z,22.42
2018-07-30T21:46:46.581Z,22.31
2018-07-30T21:49:14.980Z,22.29
2018-07-30T21:51:43.360Z,22.36
2018-07-30T21:54:11.818Z,22.35
2018-07-30T21:56:42.245Z,22.18
2018-07-30T21:59:11.217Z,22.27
2018-07-30T22:01:39.882Z,22.33
2018-07-30T22:04:08.803Z,22.42
2018-07-30T22:06:37.290Z,22.18
2018-07-30T22:09:08.782Z,21.67
2018-07-30T22:11:37.461Z,21.19
2018-07-30T22:14:12.168Z,21.31
2018-07-30T22:16:40.533Z,21.65
2018-07-30T22:19:08.938Z,21.76
2018-07-30T22:21:37.270Z,21.88
2018-07-30T22:24:05.637Z,21.62
2018-07-30T22:26:34.006Z,20.94
2018-07-30T22:29:02.316Z,20.84
2018-07-30T22:31:30.588Z,21.09
2018-07-30T22:33:58.873Z,21.47
2018-07-30T22:36:27.151Z,21.52
2018-07-30T22:38:55.445Z,21.58
2018-07-30T22:41:23.733Z,21.46
2018-07-30T22:43:52.041Z,21.10
2018-07-30T22:46:20.440Z,20.88
2018-07-30T22:48:48.792Z,20.74
2018-07-30T22:51:17.139Z,20.80
2018-07-30T22:53:45.466Z,20.78
2018-07-30T22:56:13.777Z,20.88
2018-07-30T22:58:42.132Z,21.07
2018-07-30T23:01:10.479Z,21.13
2018-07-30T23:03:38.816Z,21.07
2018-07-30T23:06:07.226Z,20.68
2018-07-30T23:08:35.652Z,20.69
2018-07-30T23:11:04.009Z,20.80
2018-07-30T23:13:32.386Z,21.03
2018-07-30T23:16:00.731Z,20.97
2018-07-30T23:18:29.096Z,20.75
2018-07-30T23:20:57.356Z,20.70
2018-07-30T23:23:25.652Z,20.29
2018-07-30T23:25:53.942Z,19.98
2018-07-30T23:28:22.291Z,19.96
2018-07-30T23:30:50.809Z,20.08
2018-07-30T23:33:19.133Z,20.47
2018-07-30T23:35:47.405Z,20.44
2018-07-30T23:38:15.746Z,20.39
2018-07-30T23:40:44.010Z,20.16
2018-07-30T23:43:12.387Z,19.85
2018-07-30T23:45:40.673Z,20.08
2018-07-30T23:48:08.921Z,20.08
2018-07-30T23:50:37.193Z,20.23
2018-07-30T23:53:05.565Z,20.26
2018-07-30T23:55:33.797Z,19.90
2018-07-30T23:58:02.127Z,19.93
